메인 페이지
METAR-TAF:

METAR-TAF

공항 :

벵갈루루 국제공항

벵갈루루, 인도

위도: 13-11-56N, 경도: 077-42-20E, 고도: 915m

현재 날씨관측

예보는 24분 전, 00:00시(UTC)에 발표되었습니다.
5kt
온도 18°C
습도 100%
기압 1013 hPa
시정: 6000m
고도 1200ft 상공 구름 보통
고도 8000ft 상공 구름 보통

METAR: VOBL 220000Z 28005KT 6000 SCT012 SCT080 18/18 Q1013 NOSIG

시각: 05:54 (00:24 UTC)

예보

예보는 1 시간 24분 전, 23:00시(UTC)에 발표되었습니다.
예보 대상 시간: 22일 00시부터 23일 06시까지 (UTC)
10kt
시정: 6000m
고도 1200ft 상공 구름 보통
고도 8000ft 상공 구름 보통
일시적
22일 09시부터 22일 15시까지 (UTC)
고도 1200ft 상공 구름 보통
고도 1800ft 상공 구름 보통
고도 2500ft 상공 구름 조금, 적란운.
고도 8000ft 상공 구름 많음

TAF: VOBL 212300Z 2200/2306 27010KT 6000 SCT012 SCT080 TEMPO 2209/2215 SCT012 SCT018 FEW025CB BKN080

4,000개 이상의 공항 관측 자료 및 예보 (METAR 및 TAF 보고).

지도상에서 검색 가능한 기상관측소가 노란 점과 빨간 점으로 표시되어 있습니다.

기상관측소 명을 보려면 표시 위로 마우스를 이동하세요.

날씨 관측과 예보를 보려면 클릭하세요.

지도 변경 : 확대하려면 엑스 표시가 있는 녹색 버튼, 축소하려면 빼기 표시가 있는 녹색 버튼, 다음 페이지의 지도를 보려면 녹색 화살표를 클릭하세요.


METAR-TAF: